Foulées d'Automne - 19/11/2017

5 Km (14 ans et +)

179 participants classés


Retour au Sommaire - Signaler une erreur - Faire défiler





1 2 3 4 /fin /tout

page suivante ->

Pl Do. Nom - Surname Prénom - Name S-Cat /cat Club - Team TEMPS - Time Km/h /sx
1 718 PRIKKHODKO DIMITRI MSE 1 ACM 00:16:15 18,4 1
2 679 FRECHET CLEMENT MSE 2 ACM 00:16:18 18,4 2
3 656 AOUZELLEG NORDINE MSE 3 NL 00:16:43 17,9 3
4 671 BASTIDE DIEGO MSE 4 ALES CÉVENNES ATHLÉTISME 00:16:54 17,7 4
5 602 MELLET CYRIL MV1 1 ASPH TRIATHLON 00:16:58 17,7 5
6 692 LEMAIRE JEROME MSE 5   00:17:20 17,3 6
7 653 MARTINACHE ROMAIN MSE 6 Entente sportive GALINETTE 00:17:26 17,2 7
8 778 NEFF ROBERT MSE 7 NL 00:17:31 17,1 8
9 786 PLANES JOSSELIN MJU 1 VEDAS ENDURANCE 00:17:37 17,0 9
10 787 RAPY JEAN PAUL MV2 1 MTP POMPIGNANE MILLENAIRE 00:17:38 17,0 10
11 676 GUIDEAU MAËL MMI 1 CLERMONT SPORT ENDURANCE 00:17:49 16,8 11
12 703 OUBEZZA MOHAMED MV1 2 COMPAGNIE DU VENT 00:17:53 16,8 12
13 701 KACHOU SAMY MJU 2 NL 00:17:59 16,7 13
14 601 TITONE FABIEN MSE 8 NL 00:18:47 16,0 14
15 607 PIERROUX LUCAS MCA 1 NL 00:18:53 15,9 15
16 777 LOIRETTE SEBASTIEN MSE 9 ST JEAN DE VEDAS 00:19:15 15,6 16
17 715 AUTRET DAVID MSE 10 MAMOUE29 00:19:16 15,6 17
18 644 FARGEOT JÉRÔME MV1 3 LES LOUPS OCCITANS GÉNÉRATION SED 00:19:18 15,5 18
19 604 MONTESINOS CHRISTOPHE MSE 11 NL 00:19:22 15,5 19
20 783 JOVANIN LAURENT MV1 4 ST JEAN DE VEDAS 00:19:30 15,4 20
21 670 SIGNORET PHILIPPE MV2 2 NL 00:19:40 15,2 21
22 700 MOLIA LUCAS MES 1 NL 00:20:07 14,9 22
23 699 ROUQUETTE ANAIS FES 1 ACVS 00:20:07 14,9 1
24 793 MURILLO ERIC MV1 5 COURIR A FABREGUES 00:20:11 14,9 23
25 652 ROBERT VALENTIN MSE 12 NL 00:20:18 14,8 24
26 702 KACHOU HIND FMI 1 NL 00:20:25 14,7 2
27 797 PAUL SIMON MCA 2 ST JEAN DE VEDAS 00:20:29 14,6 25
28 704 BELAFKIH KAMELIA FMI 2 MONTPELLIER 00:20:30 14,6 3
29 755 COLNET AUDREY FSE 1 NL 00:20:34 14,6 4
30 739 ALIBERT FLORIAN MSE 13 NL 00:21:05 14,2 26
31 641 BOUDET JEAN PHILIPPE MV1 6 perols footing/vedas endurance 00:21:07 14,2 27
32 791 COMBE CHRISTOPHE MV3 1 SAINT AUNES 00:21:14 14,1 28
33 647 BIBI FABIEN MSE 14 NL 00:21:17 14,1 29
34 684 ROUQUETTE PHILIPPE MV2 3 SPIRIDON 00:21:24 14,0 30
35 799 GARCIA LAURENT MSE 15 NL 00:21:30 13,9 31
36 776 CHALEAT DAVID MSE 16 ST JEAN DE VEDAS 00:21:38 13,9 32
37 669 PAPA MARIE FJU 1 CA PEZENAS 00:21:42 13,8 5
38 784 PLANES LANDRY MCA 3 FLORARE 00:21:46 13,8 33
39 635 BERLIE AUDREY FSE 2 NL 00:21:53 13,7 6
40 610 LACOMBRE CEDRIC MSE 17 TAM ENDURANCE 00:21:57 13,7 34
41 752 TERAL GUEWEN MMI 2 NL 00:22:04 13,6 35
42 690 ALABERT ERIC MV2 4 NL 00:22:04 13,6 36
43 625 GRUCKER CINDYA FSE 3 MARATHON SETOIS ATHLETISME 00:22:12 13,5 7
44 642 BLANCHET FRANÇOIS MV2 5 NL 00:22:15 13,5 37
45 680 VOLTA MARC MV2 6 NL 00:22:17 13,5 38
46 627 KAUFMANN JASON MSE 18 TEYRAN BIKE 34 00:22:38 13,3 39
47 730 OMAR MICHEL MV1 7 NL 00:22:41 13,2 40
48 753 BERTRAND AMELIE FV1 1 NL 00:22:47 13,2 8
49 708 KACHOU RIDA MMI 3 NL 00:22:54 13,1 41
50 616 BORKI ADAME MJU 3 NL 00:23:04 13,0 42

Aucun commentaires pour le moment, donnez votre avis, vos impressions avant, pendant! et après la course

Déjà membre? Identifiez-vous pour commenter l'épreuve ou créer un compte